Tiempo atmosférico en la estación meteorológica de Almadén, Ciudad Real (535 m.)



Fecha
DESCASC
Temp. máxima en grados centígrados (hora)
DESCASC
Temp. mínima en grados centígrados (hora)
DESCASC
Temp. media en grados centígrados
DESCASC
Racha de viento máxima en m/sg (hora)
DESCASC
Velocidad máxima media en intervalos de 10 minutos(hora)
DESCASC
Precipitaciones diarias en mm
DESCASC
Precipitaciones de 00:00 a 06:00 en mm
DESCASC
Precipitaciones de 06:00 a 12:00 en mm
DESCASC
Precipitaciones de 12:00 a 18:00 en mm
DESCASC
Precipitaciones de 18:00 a 24:00 en mm
DESCASC
31-05-2020 34.2 (15:00) 18.5 (06:00) 26.4 14.72 (17:30) 8.61 (16:50) 0 0 0 0 0
30-05-2020 36.1 (16:40) 16.9 (07:30) 26.5 7.5 (12:00) 3.89 (17:00) 0 0 0 0 0
29-05-2020 32.2 (18:30) 17.5 (07:30) 24.9 6.94 (17:50) 3.33 (17:00) 0 0 0 0 0
28-05-2020 31.1 (18:20) 16.1 (00:00) 23.6 7.78 (16:50) 4.17 (16:40) 0 0 0 0 0
27-05-2020 33.5 (17:30) 17.8 (00:00) 25.6 8.33 (17:00) 4.44 (17:00) 0 0 0 0 0
26-05-2020 31 (17:20) 16.9 (00:00) 23.9 10.56 (12:50) 6.39 (12:50) 0 0 0 0 0
25-05-2020 36.7 (16:20) 19 (00:00) 27.9 12.5 (19:00) 6.11 (19:00) 1.8 0 0 0 1.8
24-05-2020 36.1 (15:20) 18.9 (00:00) 27.5 8.06 (17:10) 4.17 (17:00) 0 0 0 0 0
23-05-2020 34.9 (15:30) 18.7 (00:00) 26.8 6.39 (15:30) 3.33 (15:30) 0 0 0 0 0
22-05-2020 35.4 (16:10) 17.9 (00:00) 26.7 6.67 (17:30) 3.61 (14:30) 0 0 0 0 0
21-05-2020 34 (16:40) 17.1 (00:00) 25.6 8.33 (18:30) 3.06 (14:50) 0 0 0 0 0
20-05-2020 32.2 (15:50) 15.1 (00:00) 23.7 5.83 (18:20) 2.78 (14:10) 0 0 0 0 0
19-05-2020 31.4 (16:40) 13.4 (00:00) 22.4 5 (14:20) 2.22 (14:20) 0 0 0 0 0
18-05-2020 28.8 (17:30) 11.8 (00:00) 20.3 5.28 (14:30) 2.22 (13:20) 0 0 0 0 0
17-05-2020 25 (17:10) 11.4 (00:00) 18.2 5.56 (15:30) 2.5 (00:30) 0 0 0 0 0
16-05-2020 23.2 (17:00) 8.8 (00:00) 16 7.22 (19:20) 2.5 (19:30) 0.2 0 0.2 0 0
15-05-2020 16.9 (19:20) 9.4 (00:00) 13.1 8.61 (16:10) 4.17 (00:30) 5.4 0 0 5.4 0
14-05-2020 14.4 (18:30) 9.1 (00:00) 11.8 13.33 (16:10) 7.78 (16:10) 2.4 0.4 1.6 0.4 0
13-05-2020 20.9 (17:40) 10.7 (00:00) 15.8 11.67 (22:20) 6.39 (22:30) 0.4 0 0 0 0.4
12-05-2020 15 (00:00) 10.8 (00:00) 12.9 8.89 (12:30) 5.83 (12:20) 2 0 0 2 0
11-05-2020 20 (17:30) 11.6 (00:00) 15.8 13.33 (19:10) 8.06 (18:30) 5.4 0 5.2 0.2 0
10-05-2020 19.1 (18:00) 10.5 (00:00) 14.8 11.11 (12:00) 5.28 (11:50) 4 0.4 2.4 0.8 0.4
09-05-2020 23.7 (15:40) 12.2 (00:00) 18 13.61 (15:00) 6.39 (19:30) 1 0 0 0 1
08-05-2020 30.4 (16:40) 15.3 (00:00) 22.8 10.28 (18:20) 5.28 (19:40) 0 0 0 0 0
07-05-2020 29.1 (17:50) 15.9 (00:00) 22.5 6.11 (23:50) 3.61 (22:10) 0 0 0 0 0
06-05-2020 27.3 (18:50) 12.3 (00:00) 19.8 4.72 (15:50) 1.94 (14:30) 0 0 0 0 0
05-05-2020 26.9 (17:40) 13.1 (00:00) 20 5.56 (15:30) 2.78 (15:10) 0 0 0 0 0

Gráficas

Temp. máximas Temp. mínimas Temp. medias Precipitaciones Rachas de viento máximas Velocidades máximas media en intervalos de 10 minutos

Datos horarios

Fecha y hora oficial Temperatura (ºC) Velocidad del viento (km/h) Dirección del viento Racha (km/h) Dirección de racha Precipitación (mm) Presión (hPa) Tendencia (hPa) Humedad (%)
2020-06-03 23:00:00 22.4 9 Oeste 23 Noroeste 0 -- -- 49
2020-06-03 22:00:00 23.3 4 Noroeste 20 Oeste 0 -- -- 47
2020-06-03 21:00:00 24.9 6 Noroeste 29 Noroeste 0 -- -- 43
2020-06-03 20:00:00 26.8 9 Noroeste 25 Noroeste 0 -- -- 39
2020-06-03 19:00:00 27.6 15 Oeste 31 Noroeste 0 -- -- 37
2020-06-03 18:00:00 29.1 11 Oeste 35 Oeste 0 -- -- 36
2020-06-03 17:00:00 27.5 9 Oeste 31 Oeste 0 -- -- 38
2020-06-03 16:00:00 28.2 10 Oeste 27 Oeste 0 -- -- 36
2020-06-03 15:00:00 27.2 5 Oeste 28 Sudoeste 0 -- -- 39
2020-06-03 14:00:00 26.5 9 Oeste 26 Oeste 0 -- -- 42
2020-06-03 13:00:00 25.2 4 Oeste 14 Oeste 0 -- -- 47
2020-06-03 12:00:00 24.6 4 Noroeste 22 Sudoeste 0 -- -- 50
2020-06-03 11:00:00 22.5 4 Noroeste 12 Sur 0 -- -- 56
2020-06-03 10:00:00 20.7 8 Sur 14 Sur 0 -- -- 62
2020-06-03 09:00:00 17.8 8 Sur 13 Sur 0 -- -- 69
2020-06-03 08:00:00 16.5 7 Sudoeste 10 Sudoeste 0 -- -- 72
2020-06-03 07:00:00 16.6 0 Calma 3 Sudeste 0 -- -- 68
2020-06-03 06:00:00 17.1 0 Calma 2 Oeste 0 -- -- 67
2020-06-03 05:00:00 17.9 0 Calma 5 Sur 0 -- -- 64
2020-06-03 04:00:00 18.8 0 Calma 5 Nordeste 0 -- -- 59
2020-06-03 03:00:00 19.2 0 Calma 7 Sudoeste 0 -- -- 57
2020-06-03 02:00:00 20.5 2 Oeste 6 Oeste 0 -- -- 52
2020-06-03 01:00:00 21.4 3 Oeste 17 Oeste 0 -- -- 50
2020-06-03 00:00:00 22.7 3 Oeste 15 Sudoeste 0 -- -- 46
2020-06-02 23:00:00 23.5 8 Sudoeste 23 Oeste 0 -- -- 45
2020-06-02 22:00:00 24.5 9 Sudoeste 24 Sudoeste 0 -- -- 46
2020-06-02 21:00:00 26.1 12 Sudoeste 26 Oeste 0 -- -- 41
2020-06-02 20:00:00 27.6 13 Sudoeste 41 Sudoeste 0 -- -- 34
2020-06-02 19:00:00 29.1 17 Sudoeste 37 Sur 0 -- -- 31
2020-06-02 18:00:00 30.3 20 Sudoeste 38 Sur 0 -- -- 31
2020-06-02 17:00:00 29.7 18 Sudoeste 37 Sur 0 -- -- 31
2020-06-02 16:00:00 30.1 9 Sudoeste 32 Sudoeste 0 -- -- 29
2020-06-02 15:00:00 30.7 14 Sudoeste 32 Sudoeste 0 -- -- 27
2020-06-02 14:00:00 28.9 8 Oeste 35 Sur 0 -- -- 29
2020-06-02 13:00:00 27.6 16 Sudoeste 33 Sudoeste 0 -- -- 28
2020-06-02 12:00:00 25.6 13 Sur 23 Sur 0 -- -- 40
2020-06-02 11:00:00 24.1 11 Sudoeste 19 Sur 0 -- -- 40
2020-06-02 10:00:00 22 7 Sur 11 Sur 0 -- -- 55
2020-06-02 09:00:00 18.5 0 Calma 4 Nordeste 0 -- -- 70
2020-06-02 08:00:00 17.2 0 Calma 6 Sudoeste 0 -- -- 71
2020-06-02 07:00:00 17.1 5 Sur 17 Sudoeste 0 -- -- 72
2020-06-02 06:00:00 17.3 9 Sudoeste 15 Sur 0 -- -- 67
2020-06-02 05:00:00 18.1 9 Sur 13 Sudoeste 0 -- -- 61
2020-06-02 04:00:00 19.2 3 Sur 5 Sur 0 -- -- 56
2020-06-02 03:00:00 20.1 0 Calma 4 Nordeste 0 -- -- 56
2020-06-02 02:00:00 20.7 0 Calma 10 Sur 0 -- -- 52
2020-06-02 01:00:00 21.2 8 Sudoeste 12 Sudoeste 0 -- -- 50
2020-06-02 00:00:00 22.2 3 Sur 8 Sur 0 -- -- 46
2020-06-01 23:00:00 23 3 Sur 9 Sur 0 -- -- 45
2020-06-01 22:00:00 24.3 0 Calma 4 Noroeste 0 -- -- 42
2020-06-01 21:00:00 25.9 5 Sudoeste 12 Sur 0 -- -- 38
2020-06-01 20:00:00 27.7 7 Sudoeste 24 Sudoeste 0 -- -- 31
2020-06-01 19:00:00 29.8 11 Sur 30 Sudoeste 0 -- -- 27
2020-06-01 18:00:00 30.2 9 Sudoeste 28 Sudoeste 0 -- -- 27
2020-06-01 17:00:00 29.9 18 Sudoeste 33 Sudoeste 0 -- -- 26
2020-06-01 16:00:00 29 18 Sudoeste 33 Sur 0 -- -- 27
2020-06-01 15:00:00 28.5 20 Sudoeste 36 Sur 0 -- -- 27
2020-06-01 14:00:00 30.4 15 Sur 33 Sudoeste 0 -- -- 27
2020-06-01 13:00:00 28.6 12 Sudoeste 30 Sudoeste 0 -- -- 31
2020-06-01 12:00:00 27.9 9 Sur 19 Sur 0 -- -- 34
2020-06-01 11:00:00 24.7 8 Sudoeste 16 Sudoeste 0 -- -- 43
2020-06-01 10:00:00 20.5 3 Sur 8 Sur 0 -- -- 56
2020-06-01 09:00:00 17.5 0 Calma 3 Sudoeste 0 -- -- 69
2020-06-01 08:00:00 15.2 0 Calma 5 Sur 0 -- -- 78
2020-06-01 07:00:00 15 2 Sur 5 Sur 0 -- -- 80
2020-06-01 06:00:00 15.7 0 Calma 2 Sudoeste 0 -- -- 74
2020-06-01 05:00:00 16.4 0 Calma 3 Nordeste 0 -- -- 71
2020-06-01 04:00:00 16.9 0 Calma 6 Sur 0 -- -- 68
2020-06-01 03:00:00 17.5 0 Calma 14 Nordeste 0 -- -- 66
2020-06-01 02:00:00 18.8 4 Nordeste 14 Nordeste 0 -- -- 62
2020-06-01 01:00:00 19.4 0 Calma 8 Sudeste 0 -- -- 58
2020-06-01 00:00:00 19.9 4 Sudeste 10 Sur 0 -- -- 56
2020-05-31 23:00:00 20.2 3 Norte 16 Sudoeste 0 -- -- 55
2020-05-31 22:00:00 21.2 5 Sur 27 Sur 0 -- -- 51
2020-05-31 21:00:00 22.7 21 Sur 39 Sudoeste 0 -- -- 45
2020-05-31 20:00:00 23.4 14 Sudoeste 28 Sudoeste 0 -- -- 41
2020-05-31 19:00:00 24 18 Sur 49 Sudoeste 0 -- -- 35
2020-05-31 18:00:00 26.1 28 Sudoeste 53 Sur 0 -- -- 28
2020-05-31 17:00:00 28.7 28 Sur 50 Sur 0 -- -- 23
2020-05-31 16:00:00 32.6 18 Sur 40 Sudoeste 0 -- -- 20
2020-05-31 15:00:00 34.2 11 Sur 24 Sudoeste 0 -- -- 21
2020-05-31 14:00:00 31.4 3 Sudoeste 20 Sudoeste 0 -- -- 25
2020-05-31 13:00:00 31.9 7 Sur 19 Sudoeste 0 -- -- 25
2020-05-31 12:00:00 29.2 6 Sudoeste 15 Sudoeste 0 -- -- 29
2020-05-31 11:00:00 25.8 5 Sur 13 Sur 0 -- -- 32
2020-05-31 10:00:00 22.6 3 Sudoeste 9 Este 0 -- -- 41
2020-05-31 09:00:00 20.7 0 Calma 4 Sur 0 -- -- 42
2020-05-31 08:00:00 19.1 2 Sur 11 Sudoeste 0 -- -- 43
2020-05-31 07:00:00 18.6 5 Sudoeste 12 Sur 0 -- -- 42
2020-05-31 06:00:00 18.5 8 Sudoeste 18 Sudoeste 0 -- -- 43
2020-05-31 05:00:00 19.7 12 Sudoeste 17 Sur 0 -- -- 39
2020-05-31 04:00:00 20.3 10 Sudoeste 24 Sur 0 -- -- 37
2020-05-31 03:00:00 21.7 11 Sur 32 Sudoeste 0 -- -- 31
2020-05-31 02:00:00 22.7 23 Sur 34 Sur 0 -- -- 29
2020-05-31 01:00:00 23.7 14 Sudoeste 20 Sudoeste 0 -- -- 33
2020-05-31 00:00:00 25.2 8 Sudoeste 21 Sur 0 -- -- 33
2020-05-30 23:00:00 26.5 7 Sudoeste 10 Sudoeste 0 -- -- 32
2020-05-30 22:00:00 27.8 4 Sur 10 Sur 0 -- -- 29
2020-05-30 21:00:00 29.8 6 Sur 22 Sur 0 -- -- 26
2020-05-30 20:00:00 33.4 5 Sur 14 Sur 0 -- -- 22
2020-05-30 19:00:00 34.7 10 Sudoeste 22 Sudoeste 0 -- -- 20
2020-05-30 18:00:00 34.9 9 Sur 25 Sudoeste 0 -- -- 20
2020-05-30 17:00:00 35.4 14 Sur 26 Sudoeste 0 -- -- 19
2020-05-30 16:00:00 34.9 9 Sudeste 25 Sudoeste 0 -- -- 20
2020-05-30 15:00:00 33.1 4 Oeste 14 Sudoeste 0 -- -- 25
2020-05-30 14:00:00 33 6 Sudoeste 18 Sudoeste 0 -- -- 27
2020-05-30 13:00:00 31.4 12 Sudoeste 25 Sudoeste 0 -- -- 33
2020-05-30 12:00:00 27.9 13 Sudoeste 27 Sur 0 -- -- 39
2020-05-30 11:00:00 25.9 10 Sudoeste 18 Sudoeste 0 -- -- 45
2020-05-30 10:00:00 22.2 11 Sur 19 Sur 0 -- -- 50
2020-05-30 09:00:00 19.4 2 Sur 12 Sur 0 -- -- 55
2020-05-30 08:00:00 17.1 6 Sur 11 Sudoeste 0 -- -- 67
2020-05-30 07:00:00 17.3 4 Sudeste 15 Sur 0 -- -- 63
2020-05-30 06:00:00 18.1 2 Sudeste 7 Sur 0 -- -- 51
2020-05-30 05:00:00 19.5 2 Sudeste 4 Sur 0 -- -- 45
2020-05-30 04:00:00 20 3 Sudoeste 13 Sur 0 -- -- 46
2020-05-30 03:00:00 21.5 4 Nordeste 8 Nordeste 0 -- -- 40
2020-05-30 02:00:00 22.9 0 Calma 4 Nordeste 0 -- -- 37
2020-05-30 01:00:00 23.5 0 Calma 7 Este 0 -- -- 35
2020-05-30 00:00:00 24.8 0 Calma 8 Este 0 -- -- 32
2020-05-29 23:00:00 25.9 4 Este 6 Nordeste 0 -- -- 32
2020-05-29 22:00:00 27.4 3 Este 6 Este 0 -- -- 30
2020-05-29 21:00:00 29.3 4 Nordeste 11 Nordeste 0 -- -- 26
2020-05-29 20:00:00 31.2 5 Nordeste 18 Nordeste 0 -- -- 23
2020-05-29 19:00:00 32.1 6 Nordeste 23 Noroeste 0 -- -- 23
2020-05-29 18:00:00 32 8 Este 25 Norte 0 -- -- 23
2020-05-29 17:00:00 31.2 12 Norte 23 Norte 0 -- -- 24
2020-05-29 16:00:00 31.3 9 Nordeste 18 Nordeste 0 -- -- 24
2020-05-29 15:00:00 30.3 9 Nordeste 21 Este 0 -- -- 27
2020-05-29 14:00:00 30.2 6 Este 17 Nordeste 0 -- -- 29
2020-05-29 13:00:00 27.9 5 Nordeste 18 Noroeste 0 -- -- 34
2020-05-29 12:00:00 26.4 4 Este 14 Nordeste 0 -- -- 38
2020-05-29 11:00:00 24.5 6 Este 14 Nordeste 0 -- -- 40
2020-05-29 10:00:00 21.5 4 Este 10 Este 0 -- -- 47
2020-05-29 09:00:00 18.8 4 Este 12 Nordeste 0 -- -- 52
2020-05-29 08:00:00 17.5 0 Calma 10 Este 0 -- -- 54
2020-05-29 07:00:00 17.7 4 Nordeste 8 Este 0 -- -- 53
2020-05-29 06:00:00 18.9 0 Calma 9 Sudeste 0 -- -- 48
2020-05-29 05:00:00 20 4 Este 20 Este 0 -- -- 46
2020-05-29 04:00:00 19.7 7 Este 16 Este 0 -- -- 48
2020-05-29 03:00:00 21 5 Este 14 Este 0 -- -- 44
2020-05-29 02:00:00 22 9 Este 23 Este 0 -- -- 41
2020-05-29 01:00:00 22.6 6 Este 22 Nordeste 0 -- -- 42
2020-05-29 00:00:00 23.6 7 Nordeste 16 Nordeste 0 -- -- 40
2020-05-28 23:00:00 24.6 9 Nordeste 17 Este 0 -- -- 41
2020-05-28 22:00:00 26.4 7 Nordeste 19 Nordeste 0 -- -- 35
2020-05-28 21:00:00 28.1 10 Nordeste 23 Nordeste 0 -- -- 32
2020-05-28 20:00:00 29.9 10 Nordeste 25 Nordeste 0 -- -- 30
2020-05-28 19:00:00 31 10 Nordeste 25 Nordeste 0 -- -- 28
2020-05-28 18:00:00 31 10 Nordeste 27 Nordeste 0 -- -- 28
2020-05-28 17:00:00 30.7 11 Nordeste 28 Nordeste 0 -- -- 30
2020-05-28 16:00:00 30 12 Nordeste 25 Nordeste 0 -- -- 31
2020-05-28 15:00:00 29.9 10 Este 23 Nordeste 0 -- -- 32
2020-05-28 14:00:00 28.8 8 Este 24 Nordeste 0 -- -- 33
2020-05-28 13:00:00 27 9 Este 21 Nordeste 0 -- -- 38
2020-05-28 12:00:00 25.1 8 Este 20 Este 0 -- -- 42
2020-05-28 11:00:00 22.7 8 Este 17 Este 0 -- -- 49
2020-05-28 10:00:00 20 6 Este 17 Este 0 -- -- 58
2020-05-28 09:00:00 17.9 5 Este 21 Nordeste 0 -- -- 65
2020-05-28 08:00:00 16.2 5 Nordeste 16 Este 0 -- -- 69
2020-05-28 07:00:00 16.5 5 Nordeste 23 Este 0 -- -- 63
2020-05-28 06:00:00 17.4 5 Este 15 Nordeste 0 -- -- 59
2020-05-28 05:00:00 18 5 Este 23 Este 0 -- -- 54
2020-05-28 04:00:00 19 13 Este 26 Este 0 -- -- 50
2020-05-28 03:00:00 19.9 7 Este 22 Este 0 -- -- 51
2020-05-28 02:00:00 21.2 9 Este 23 Este 0 -- -- 48
2020-05-28 01:00:00 22 8 Este 18 Nordeste 0 -- -- 49
2020-05-28 00:00:00 23.7 9 Este 19 Este 0 -- -- 47
2020-05-27 23:00:00 25.6 3 Sudeste 16 Sur 0 -- -- 40
2020-05-27 22:00:00 26.5 5 Sudeste 14 Sudeste 0 -- -- 37
2020-05-27 21:00:00 28.7 6 Sur 19 Sur 0 -- -- 33
2020-05-27 20:00:00 30.1 7 Sur 22 Este 0 -- -- 33
2020-05-27 19:00:00 32.7 6 Este 25 Nordeste 0 -- -- 26
2020-05-27 18:00:00 32.6 11 Este 24 Nordeste 0 -- -- 27
2020-05-27 17:00:00 31.1 16 Nordeste 30 Nordeste 0 -- -- 30
2020-05-27 16:00:00 31.2 10 Este 27 Este 0 -- -- 30
2020-05-27 15:00:00 30.3 9 Este 26 Nordeste 0 -- -- 33
2020-05-27 14:00:00 28.5 12 Este 23 Nordeste 0 -- -- 39
2020-05-27 13:00:00 27.2 12 Este 26 Este 0 -- -- 42
2020-05-27 12:00:00 25 12 Nordeste 23 Nordeste 0 -- -- 47
2020-05-27 11:00:00 23 9 Nordeste 21 Nordeste 0 -- -- 53
2020-05-27 10:00:00 21.1 10 Este 22 Este 0 -- -- 58
2020-05-27 09:00:00 20.1 6 Este 18 Este 0 -- -- 59
2020-05-27 08:00:00 18.3 4 Este 13 Este 0 -- -- 69
2020-05-27 07:00:00 17.9 5 Este 14 Este 0 -- -- 74
2020-05-27 06:00:00 18.5 6 Este 15 Nordeste 0 -- -- 71
2020-05-27 05:00:00 19 5 Este 13 Este 0 -- -- 68
2020-05-27 04:00:00 19.3 0 Calma 15 Nordeste 0 -- -- 66
2020-05-27 03:00:00 20.2 5 Este 17 Sudeste 0 -- -- 64
2020-05-27 02:00:00 21.7 8 Este 26 Este 0 -- -- 60
2020-05-27 01:00:00 22.3 12 Este 25 Este 0 -- -- 58
2020-05-27 00:00:00 23 11 Nordeste 24 Este 0 -- -- 56
2020-05-26 23:00:00 23.5 9 Este 19 Este 0 -- -- 53
2020-05-26 22:00:00 24.5 10 Nordeste 19 Nordeste 0 -- -- 50
2020-05-26 21:00:00 26.3 13 Nordeste 24 Nordeste 0 -- -- 47
2020-05-26 20:00:00 28.3 13 Este 27 Este 0 -- -- 42
2020-05-26 19:00:00 28.7 13 Nordeste 24 Este 0 -- -- 40
2020-05-26 18:00:00 29.9 12 Este 27 Nordeste 0 -- -- 35
2020-05-26 17:00:00 29.8 9 Este 26 Este 0 -- -- 35
2020-05-26 16:00:00 29.2 7 Este 22 Este 0 -- -- 36
2020-05-26 15:00:00 27.7 11 Este 27 Este 0 -- -- 39
2020-05-26 14:00:00 26.7 15 Este 35 Este 0 -- -- 44
2020-05-26 13:00:00 24.9 19 Nordeste 38 Nordeste 0 -- -- 53
2020-05-26 12:00:00 23.5 17 Nordeste 29 Nordeste 0 -- -- 60
2020-05-26 11:00:00 22.4 10 Nordeste 17 Nordeste 0 -- -- 66
2020-05-26 10:00:00 20.4 8 Nordeste 14 Nordeste 0 -- -- 75
2020-05-26 09:00:00 18.6 5 Este 11 Nordeste 0 -- -- 82
2020-05-26 08:00:00 17.2 2 Este 9 Nordeste 0 -- -- 89
2020-05-26 07:00:00 16.9 0 Calma 7 Este 0 -- -- 90
2020-05-26 06:00:00 17.3 0 Calma 12 Este 0 -- -- 88
2020-05-26 05:00:00 17.9 5 Este 13 Nordeste 0 -- -- 86
2020-05-26 04:00:00 18.3 3 Noroeste 18 Este 0 -- -- 85
2020-05-26 03:00:00 19.4 5 Este 12 Este 0 -- -- 76
2020-05-26 02:00:00 19.4 2 Nordeste 8 Nordeste 0 -- -- 80
2020-05-26 01:00:00 18.9 2 Norte 8 Nordeste 0 -- -- 86
2020-05-26 00:00:00 19 2 Este 21 Este 0 -- -- 88
2020-05-25 23:00:00 19.5 12 Este 35 Este 0 -- -- 83
2020-05-25 22:00:00 20.1 8 Este 18 Este 0.8 -- -- 83
2020-05-25 21:00:00 20.6 9 Este 29 Nordeste 0.2 -- -- 78
2020-05-25 20:00:00 21.1 14 Nordeste 29 Nordeste 0.6 -- -- 78
2020-05-25 19:00:00 24.8 22 Norte 45 Norte 0.2 -- -- 62
2020-05-25 18:00:00 31.4 10 Sudoeste 20 Sur 0 -- -- 34
2020-05-25 17:00:00 34.5 8 Sudoeste 22 Sur 0 -- -- 30
2020-05-25 16:00:00 34.4 4 Noroeste 18 Sudoeste 0 -- -- 31
2020-05-25 15:00:00 34.8 9 Sur 18 Sur 0 -- -- 31
2020-05-25 14:00:00 32.8 3 Noroeste 18 Sur 0 -- -- 34
2020-05-25 13:00:00 32.3 10 Sudoeste 18 Sur 0 -- -- 35
2020-05-25 12:00:00 29.6 8 Sudoeste 15 Sudoeste 0 -- -- 38
2020-05-25 11:00:00 27.2 10 Sur 16 Sur 0 -- -- 40
2020-05-25 10:00:00 23.6 8 Sur 15 Sur 0 -- -- 43
2020-05-25 09:00:00 21.5 5 Sur 13 Sur 0 -- -- 46
2020-05-25 08:00:00 19.8 7 Sudoeste 14 Sudoeste 0 -- -- 48
2020-05-25 07:00:00 19.9 8 Sur 12 Sudoeste 0 -- -- 48
2020-05-25 06:00:00 20.2 6 Sur 19 Sudoeste 0 -- -- 47
2020-05-25 05:00:00 20.9 10 Sudoeste 21 Sur 0 -- -- 43
2020-05-25 04:00:00 22.1 9 Sudoeste 17 Sudoeste 0 -- -- 39
2020-05-25 03:00:00 23.6 11 Sudoeste 17 Sudoeste 0 -- -- 38
2020-05-25 02:00:00 24.5 8 Sudoeste 15 Sudoeste 0 -- -- 38
2020-05-25 01:00:00 26 0 Calma 8 Norte 0 -- -- 39
2020-05-25 00:00:00 27.4 3 Noroeste 22 Sudoeste 0 -- -- 34
2020-05-24 23:00:00 28 6 Oeste 23 Oeste 0 -- -- 35
2020-05-24 22:00:00 29 5 Sudoeste 19 Sudoeste 0 -- -- 32
2020-05-24 21:00:00 30.1 4 Sudoeste 17 Sur 0 -- -- 32
2020-05-24 20:00:00 31.2 6 Sur 24 Sudoeste 0 -- -- 31
2020-05-24 19:00:00 34.9 12 Sur 26 Sudoeste 0 -- -- 26
2020-05-24 18:00:00 35.9 15 Sur 29 Sur 0 -- -- 26
2020-05-24 17:00:00 35.4 15 Sudoeste 26 Sudoeste 0 -- -- 27
2020-05-24 16:00:00 34.3 6 Sudoeste 22 Sudoeste 0 -- -- 31
2020-05-24 15:00:00 35.6 10 Sur 23 Sur 0 -- -- 30
2020-05-24 14:00:00 34.7 11 Sudoeste 19 Sur 0 -- -- 32
2020-05-24 13:00:00 32.9 6 Sur 18 Sur 0 -- -- 33
2020-05-24 12:00:00 30.4 5 Sur 15 Sur 0 -- -- 37
2020-05-24 11:00:00 27.1 3 Sudeste 10 Sudoeste 0 -- -- 44
2020-05-24 10:00:00 24.4 4 Este 8 Nordeste 0 -- -- 51
2020-05-24 09:00:00 21.1 0 Calma 5 Este 0 -- -- 64
2020-05-24 08:00:00 19.4 0 Calma 3 Nordeste 0 -- -- 67
2020-05-24 07:00:00 19.2 0 Calma 2 Sudoeste 0 -- -- 70
2020-05-24 06:00:00 20.5 0 Calma 2 Nordeste 0 -- -- 64
2020-05-24 05:00:00 20.8 2 Nordeste 4 Nordeste 0 -- -- 63
2020-05-24 04:00:00 21.7 2 Norte 3 Nordeste 0 -- -- 59
2020-05-24 03:00:00 22.6 0 Calma 2 Sur 0 -- -- 55
2020-05-24 02:00:00 23.9 0 Calma 4 Norte 0 -- -- 52
2020-05-24 01:00:00 24.2 0 Calma 5 Norte 0 -- -- 52
2020-05-24 00:00:00 25.1 2 Norte 4 Norte 0 -- -- 48
2020-05-23 23:00:00 25.7 0 Calma 4 Noroeste 0 -- -- 42
2020-05-23 22:00:00 27.1 0 Calma 7 Norte 0 -- -- 35
2020-05-23 21:00:00 29.6 2 Noroeste 13 Norte 0 -- -- 31
2020-05-23 20:00:00 31.3 6 Norte 15 Noroeste 0 -- -- 22
2020-05-23 19:00:00 34.2 3 Noroeste 19 Norte 0 -- -- 22
2020-05-23 18:00:00 33.5 5 Noroeste 17 Norte 0 -- -- 24
2020-05-23 17:00:00 34 4 Noroeste 17 Oeste 0 -- -- 25
2020-05-23 16:00:00 33.8 4 Noroeste 23 Sudoeste 0 -- -- 28
2020-05-23 15:00:00 32.7 5 Norte 15 Oeste 0 -- -- 27
2020-05-23 14:00:00 32.5 6 Oeste 16 Oeste 0 -- -- 30
2020-05-23 13:00:00 30.3 4 Norte 9 Oeste 0 -- -- 34
2020-05-23 12:00:00 28.8 3 Norte 9 Sudoeste 0 -- -- 40
2020-05-23 11:00:00 26.3 4 Sudoeste 11 Sur 0 -- -- 54
2020-05-23 10:00:00 23.5 2 Sur 6 Noroeste 0 -- -- 61
2020-05-23 09:00:00 20.9 0 Calma 5 Norte 0 -- -- 64
2020-05-23 08:00:00 19.2 0 Calma 4 Norte 0 -- -- 66
2020-05-23 07:00:00 18.8 0 Calma 3 Norte 0 -- -- 70
2020-05-23 06:00:00 19.5 0 Calma 4 Norte 0 -- -- 68
2020-05-23 05:00:00 20.4 0 Calma 5 Noroeste 0 -- -- 64
2020-05-23 04:00:00 21.2 3 Norte 6 Norte 0 -- -- 61
2020-05-23 03:00:00 21.8 0 Calma 4 Sur 0 -- -- 58
2020-05-23 02:00:00 22.6 0 Calma 5 Norte 0 -- -- 55
2020-05-23 01:00:00 23.7 2 Norte 15 Noroeste 0 -- -- 52
2020-05-23 00:00:00 25.5 4 Noroeste 12 Noroeste 0 -- -- 45
2020-05-22 23:00:00 26.1 7 Sur 13 Sur 0 -- -- 40
2020-05-22 22:00:00 28.5 0 Calma 8 Norte 0 -- -- 36
2020-05-22 21:00:00 30.6 3 Nordeste 7 Norte 0 -- -- 36
2020-05-22 20:00:00 31.9 0 Calma 10 Sudoeste 0 -- -- 32
2020-05-22 19:00:00 34.3 6 Sur 21 Sur 0 -- -- 28
2020-05-22 18:00:00 35.1 10 Sur 24 Sudoeste 0 -- -- 29
2020-05-22 17:00:00 34.7 5 Sudoeste 22 Sur 0 -- -- 27
2020-05-22 16:00:00 35.3 9 Sur 21 Sur 0 -- -- 26
2020-05-22 15:00:00 34.1 6 Sudoeste 24 Sur 0 -- -- 29
2020-05-22 14:00:00 33.5 6 Oeste 14 Sur 0 -- -- 32
2020-05-22 13:00:00 32.5 7 Sudoeste 13 Nordeste 0 -- -- 36
2020-05-22 12:00:00 28.8 4 Nordeste 10 Norte 0 -- -- 41
2020-05-22 11:00:00 27 2 Sur 7 Sudoeste 0 -- -- 48
2020-05-22 10:00:00 23.5 0 Calma 5 Oeste 0 -- -- 54
2020-05-22 09:00:00 20 0 Calma 4 Norte 0 -- -- 69
2020-05-22 08:00:00 18.2 0 Calma 2 Oeste 0 -- -- 71
2020-05-22 07:00:00 18.5 0 Calma 0 Calma 0 -- -- 68
2020-05-22 06:00:00 19 0 Calma 4 Norte 0 -- -- 65
2020-05-22 05:00:00 20 0 Calma 3 Norte 0 -- -- 61
2020-05-22 04:00:00 20.6 0 Calma 4 Norte 0 -- -- 61
2020-05-22 03:00:00 21.3 3 Norte 5 Norte 0 -- -- 59
2020-05-22 02:00:00 21.8 0 Calma 9 Norte 0 -- -- 59
2020-05-22 01:00:00 23.2 2 Norte 4 Noroeste 0 -- -- 52
2020-05-22 00:00:00 24 3 Norte 6 Norte 0 -- -- 48
2020-05-21 23:00:00 24.8 0 Calma 12 Norte 0 -- -- 47
2020-05-21 22:00:00 26.3 2 Noroeste 9 Norte 0 -- -- 44
2020-05-21 21:00:00 28.4 5 Norte 16 Norte 0 -- -- 39
2020-05-21 20:00:00 30.4 5 Norte 14 Norte 0 -- -- 32
2020-05-21 19:00:00 33.1 4 Oeste 30 Sudoeste 0 -- -- 27
2020-05-21 18:00:00 33.6 3 Norte 14 Sudoeste 0 -- -- 26
2020-05-21 17:00:00 33.1 5 Nordeste 13 Oeste 0 -- -- 25
2020-05-21 16:00:00 33.9 9 Sudoeste 19 Sudoeste 0 -- -- 24
2020-05-21 15:00:00 33.7 10 Sudoeste 21 Sudoeste 0 -- -- 25
2020-05-21 14:00:00 31.4 5 Sur 13 Sur 0 -- -- 30
2020-05-21 13:00:00 29.3 4 Norte 9 Norte 0 -- -- 38
2020-05-21 12:00:00 28.2 3 Oeste 10 Sudoeste 0 -- -- 45
2020-05-21 11:00:00 24.7 6 Sudoeste 10 Sudoeste 0 -- -- 54
2020-05-21 10:00:00 20.7 3 Sur 6 Sur 0 -- -- 68
2020-05-21 09:00:00 18.4 0 Calma 2 Sur 0 -- -- 74
2020-05-21 08:00:00 17.1 0 Calma 0 Calma 0 -- -- 75
2020-05-21 07:00:00 17.5 0 Calma 7 Norte 0 -- -- 72
2020-05-21 06:00:00 18.4 3 Norte 8 Norte 0 -- -- 68
2020-05-21 05:00:00 18.8 3 Norte 9 Norte 0 -- -- 66
2020-05-21 04:00:00 19.8 4 Norte 8 Norte 0 -- -- 62
2020-05-21 03:00:00 20.7 0 Calma 11 Oeste 0 -- -- 58
2020-05-21 02:00:00 21.7 3 Noroeste 10 Oeste 0 -- -- 51
2020-05-21 01:00:00 21.8 0 Calma 5 Oeste 0 -- -- 46
2020-05-21 00:00:00 22.3 0 Calma 5 Norte 0 -- -- 46
2020-05-20 23:00:00 23.5 0 Calma 8 Norte 0 -- -- 44
2020-05-20 22:00:00 25.1 3 Norte 9 Norte 0 -- -- 39
2020-05-20 21:00:00 27.4 3 Norte 13 Norte 0 -- -- 34
2020-05-20 20:00:00 28.8 6 Norte 19 Norte 0 -- -- 31
2020-05-20 19:00:00 31.1 4 Norte 21 Norte 0 -- -- 26
2020-05-20 18:00:00 31.7 5 Noroeste 17 Norte 0 -- -- 25
2020-05-20 17:00:00 31.9 7 Oeste 15 Oeste 0 -- -- 26
2020-05-20 16:00:00 32 6 Oeste 17 Sudoeste 0 -- -- 26
2020-05-20 15:00:00 30.6 6 Noroeste 19 Sudoeste 0 -- -- 29
2020-05-20 14:00:00 30.6 8 Oeste 17 Sudoeste 0 -- -- 30
2020-05-20 13:00:00 29.5 4 Noroeste 13 Norte 0 -- -- 34
2020-05-20 12:00:00 27.3 4 Nordeste 11 Sur 0 -- -- 41
2020-05-20 11:00:00 25.1 4 Sudoeste 8 Sur 0 -- -- 57
2020-05-20 10:00:00 20.6 3 Sudoeste 4 Oeste 0 -- -- 63
2020-05-20 09:00:00 17.2 0 Calma 2 Nordeste 0 -- -- 68
2020-05-20 08:00:00 15.5 0 Calma 2 Norte 0 -- -- 74
2020-05-20 07:00:00 15.4 0 Calma 0 Calma 0 -- -- 72
2020-05-20 06:00:00 15.8 0 Calma 2 Nordeste 0 -- -- 70
2020-05-20 05:00:00 16.3 0 Calma 4 Sur 0 -- -- 67
2020-05-20 04:00:00 17 0 Calma 4 Sur 0 -- -- 65
2020-05-20 03:00:00 18.7 0 Calma 2 Sur 0 -- -- 56
2020-05-20 02:00:00 20 0 Calma 4 Sur 0 -- -- 52
2020-05-20 01:00:00 21.2 0 Calma 2 Nordeste 0 -- -- 48
2020-05-20 00:00:00 22.2 0 Calma 3 Norte 0 -- -- 44
2020-05-19 23:00:00 22.9 0 Calma 6 Norte 0 -- -- 41
2020-05-19 22:00:00 24 2 Norte 6 Norte 0 -- -- 39
2020-05-19 21:00:00 26.2 3 Norte 14 Norte 0 -- -- 36
2020-05-19 20:00:00 27.5 3 Norte 12 Norte 0 -- -- 32
2020-05-19 19:00:00 29.8 3 Noroeste 14 Norte 0 -- -- 26
2020-05-19 18:00:00 29.8 4 Noroeste 13 Oeste 0 -- -- 27
2020-05-19 17:00:00 30.6 4 Noroeste 17 Oeste 0 -- -- 26
2020-05-19 16:00:00 30.4 4 Oeste 14 Sudoeste 0 -- -- 27
2020-05-19 15:00:00 29.3 4 Noroeste 18 Sur 0 -- -- 29
2020-05-19 14:00:00 29.2 5 Sudoeste 13 Sudoeste 0 -- -- 32
2020-05-19 13:00:00 28.5 7 Sur 13 Sur 0 -- -- 36
2020-05-19 12:00:00 26.1 6 Sur 9 Sur 0 -- -- 41
2020-05-19 11:00:00 23 5 Sur 9 Sur 0 -- -- 50
2020-05-19 10:00:00 18.2 0 Calma 5 Sur 0 -- -- 68
2020-05-19 09:00:00 15.4 0 Calma 6 Sur 0 -- -- 73
2020-05-19 08:00:00 13.7 0 Calma 2 Este 0 -- -- 79
2020-05-19 07:00:00 13.7 0 Calma 2 Sudeste 0 -- -- 77
2020-05-19 06:00:00 14.8 0 Calma 2 Sudoeste 0 -- -- 72
2020-05-19 05:00:00 15.9 0 Calma 2 Nordeste 0 -- -- 65
2020-05-19 04:00:00 17.2 0 Calma 3 Nordeste 0 -- -- 61
2020-05-19 03:00:00 18.2 0 Calma 2 Norte 0 -- -- 56
2020-05-19 02:00:00 19.1 2 Norte 3 Noroeste 0 -- -- 54
2020-05-19 01:00:00 19.2 0 Calma 2 Sudeste 0 -- -- 54
2020-05-19 00:00:00 20.1 0 Calma 4 Norte 0 -- -- 51
2020-05-18 23:00:00 20.9 0 Calma 4 Norte 0 -- -- 50
2020-05-18 22:00:00 22.2 0 Calma 5 Noroeste 0 -- -- 47
2020-05-18 21:00:00 24.6 0 Calma 6 Oeste 0 -- -- 38
2020-05-18 20:00:00 26 2 Noroeste 12 Oeste 0 -- -- 33
2020-05-18 19:00:00 28 6 Oeste 15 Sudoeste 0 -- -- 32
2020-05-18 18:00:00 28.2 5 Oeste 13 Sudoeste 0 -- -- 30
2020-05-18 17:00:00 28 5 Noroeste 16 Norte 0 -- -- 33
2020-05-18 16:00:00 28.6 5 Oeste 16 Sudoeste 0 -- -- 33
2020-05-18 15:00:00 26 5 Norte 19 Norte 0 -- -- 33
2020-05-18 14:00:00 25.9 4 Oeste 16 Norte 0 -- -- 38
2020-05-18 13:00:00 24.7 3 Noroeste 12 Sur 0 -- -- 41
2020-05-18 12:00:00 23.8 6 Sudoeste 12 Sur 0 -- -- 54
2020-05-18 11:00:00 20.2 4 Sudoeste 9 Sur 0 -- -- 63
2020-05-18 10:00:00 16.2 4 Sur 7 Sur 0 -- -- 79
2020-05-18 09:00:00 14 0 Calma 2 Oeste 0 -- -- 84
2020-05-18 08:00:00 12 0 Calma 3 Sudeste 0 -- -- 87
2020-05-18 07:00:00 12 0 Calma 2 Sudeste 0 -- -- 86
2020-05-18 06:00:00 12.8 0 Calma 3 Oeste 0 -- -- 83
2020-05-18 05:00:00 13.6 0 Calma 4 Sur 0 -- -- 79
2020-05-18 04:00:00 14.6 0 Calma 14 Sur 0 -- -- 75
2020-05-18 03:00:00 15.4 6 Sur 12 Sur 0 -- -- 74
2020-05-18 02:00:00 15.6 3 Sur 7 Sudoeste 0 -- -- 67
2020-05-18 01:00:00 16.7 0 Calma 5 Nordeste 0 -- -- 59
2020-05-18 00:00:00 18 0 Calma 3 Norte 0 -- -- 53
2020-05-17 23:00:00 18.5 0 Calma 2 Norte 0 -- -- 54
2020-05-17 22:00:00 19.8 0 Calma 2 Sudoeste 0 -- -- 51
2020-05-17 21:00:00 22.3 0 Calma 5 Sudoeste 0 -- -- 45
2020-05-17 20:00:00 22.8 3 Oeste 9 Norte 0 -- -- 43
2020-05-17 19:00:00 24.9 3 Noroeste 13 Nordeste 0 -- -- 37
2020-05-17 18:00:00 24.4 5 Norte 16 Norte 0 -- -- 40
2020-05-17 17:00:00 23.6 4 Norte 13 Nordeste 0 -- -- 41
2020-05-17 16:00:00 22.1 9 Norte 20 Norte 0 -- -- 46
2020-05-17 15:00:00 22.2 5 Nordeste 14 Este 0 -- -- 47
2020-05-17 14:00:00 21.9 3 Norte 13 Sur 0 -- -- 47
2020-05-17 13:00:00 20.1 4 Norte 16 Sudeste 0 -- -- 56
2020-05-17 12:00:00 21.5 5 Sudeste 15 Sur 0 -- -- 55
2020-05-17 11:00:00 18.9 4 Sudeste 10 Sur 0 -- -- 68
2020-05-17 10:00:00 16.4 2 Este 10 Este 0 -- -- 75
2020-05-17 09:00:00 14 0 Calma 6 Este 0 -- -- 85
2020-05-17 08:00:00 11.7 2 Este 6 Este 0 -- -- 95
2020-05-17 07:00:00 11.5 0 Calma 3 Norte 0 -- -- 94
2020-05-17 06:00:00 11.5 0 Calma 5 Nordeste 0 -- -- 93
2020-05-17 05:00:00 12.2 0 Calma 2 Sur 0 -- -- 91
2020-05-17 04:00:00 12.8 0 Calma 3 Sudoeste 0 -- -- 89
2020-05-17 03:00:00 13.4 0 Calma 3 Norte 0 -- -- 87
2020-05-17 02:00:00 14 0 Calma 5 Nordeste 0 -- -- 85
2020-05-17 01:00:00 14.3 0 Calma 13 Sur 0 -- -- 84
2020-05-17 00:00:00 14.9 9 Sur 14 Sur 0 -- -- 78
2020-05-16 23:00:00 15.4 0 Calma 10 Norte 0 -- -- 76
2020-05-16 22:00:00 16.4 4 Sur 13 Sur 0 -- -- 69
2020-05-16 21:00:00 17.3 7 Sur 14 Sur 0 -- -- 69
2020-05-16 20:00:00 18.5 0 Calma 26 Norte 0 -- -- 64
2020-05-16 19:00:00 22.3 4 Norte 16 Norte 0 -- -- 45
2020-05-16 18:00:00 21.6 5 Nordeste 15 Norte 0 -- -- 47
2020-05-16 17:00:00 23.2 3 Oeste 17 Este 0 -- -- 41
2020-05-16 16:00:00 20.2 7 Nordeste 16 Nordeste 0 -- -- 54
2020-05-16 15:00:00 20.7 2 Norte 13 Nordeste 0 -- -- 51
2020-05-16 14:00:00 20.7 5 Sudeste 18 Sur 0 -- -- 56
2020-05-16 13:00:00 18.2 6 Nordeste 19 Este 0 -- -- 64
2020-05-16 12:00:00 16.7 4 Nordeste 15 Este 0.2 -- -- 73
2020-05-16 11:00:00 15.3 5 Sudeste 14 Nordeste 0 -- -- 80
2020-05-16 10:00:00 12.5 6 Nordeste 13 Nordeste 0 -- -- 91
2020-05-16 09:00:00 9.9 2 Nordeste 5 Nordeste 0 -- -- 97
2020-05-16 08:00:00 9 3 Nordeste 7 Este 0 -- -- 97
2020-05-16 07:00:00 9.2 2 Este 9 Este 0 -- -- 96
2020-05-16 06:00:00 9 0 Calma 6 Nordeste 0 -- -- 95
2020-05-16 05:00:00 9.8 0 Calma 6 Nordeste 0 -- -- 94
2020-05-16 04:00:00 10.1 0 Calma 4 Norte 0 -- -- 94
2020-05-16 03:00:00 10.5 0 Calma 4 Nordeste 0 -- -- 92
2020-05-16 02:00:00 10.8 3 Nordeste 4 Nordeste 0 -- -- 91
2020-05-16 01:00:00 11.3 0 Calma 4 Nordeste 0 -- -- 90
2020-05-16 00:00:00 11.7 0 Calma 3 Nordeste 0 -- -- 90
2020-05-15 23:00:00 12.1 0 Calma 5 Norte 0 -- -- 86
2020-05-15 22:00:00 13 0 Calma 6 Norte 0 -- -- 80
2020-05-15 21:00:00 14.7 0 Calma 15 Norte 0 -- -- 73
2020-05-15 20:00:00 15.6 5 Norte 13 Norte 0 -- -- 71
2020-05-15 19:00:00 16.1 3 Noroeste 15 Sur 0 -- -- 67
2020-05-15 18:00:00 14.3 4 Sudoeste 8 Nordeste 0.6 -- -- 87
2020-05-15 17:00:00 11.9 6 Nordeste 31 Nordeste 1 -- -- 91
2020-05-15 16:00:00 16.2 3 Norte 16 Nordeste 0 -- -- 72
2020-05-15 15:00:00 14.6 6 Norte 16 Norte 0 -- -- 73
2020-05-15 14:00:00 12.9 0 Calma 23 Norte 3.4 -- -- 88
2020-05-15 13:00:00 15.1 7 Norte 15 Norte 0.4 -- -- 74
2020-05-15 12:00:00 15 4 Norte 13 Norte 0 -- -- 71
2020-05-15 11:00:00 14.9 3 Nordeste 13 Norte 0 -- -- 72
2020-05-15 10:00:00 13.2 3 Sur 12 Este 0 -- -- 83
2020-05-15 09:00:00 11.4 2 Sur 5 Norte 0 -- -- 94
2020-05-15 08:00:00 9.7 0 Calma 6 Este 0 -- -- 95
2020-05-15 07:00:00 9.6 0 Calma 5 Este 0 -- -- 94
2020-05-15 06:00:00 10 3 Este 7 Nordeste 0 -- -- 92
2020-05-15 05:00:00 10.3 0 Calma 6 Este 0 -- -- 92
2020-05-15 04:00:00 10.5 3 Sur 13 Sur 0 -- -- 91
2020-05-15 03:00:00 10.2 4 Sur 12 Sur 0 -- -- 91
2020-05-15 02:00:00 10.5 2 Sudeste 17 Sur 0 -- -- 90
2020-05-15 01:00:00 10.8 9 Sur 25 Sur 0 -- -- 89
2020-05-15 00:00:00 11.1 14 Sur 29 Sur 0 -- -- 89
2020-05-14 23:00:00 11.3 13 Sur 28 Sur 0 -- -- 87
2020-05-14 22:00:00 11.8 16 Sur 33 Sur 0 -- -- 85
2020-05-14 21:00:00 12.8 22 Sur 40 Sur 0 -- -- 84
2020-05-14 20:00:00 13.4 18 Sur 40 Sur 0 -- -- 82
2020-05-14 19:00:00 14.3 13 Sur 29 Sur 0 -- -- 84
2020-05-14 18:00:00 13.3 23 Sur 46 Sur 0 -- -- 90
2020-05-14 17:00:00 13.8 9 Sur 48 Sur 0.4 -- -- 89
2020-05-14 16:00:00 14.3 12 Sur 26 Sur 0 -- -- 82
2020-05-14 15:00:00 12.8 20 Sur 37 Sudoeste 0 -- -- 85
2020-05-14 14:00:00 12.1 18 Sur 31 Sur 0 -- -- 88
2020-05-14 13:00:00 11.8 5 Sur 14 Sur 0 -- -- 92
2020-05-14 12:00:00 11.3 4 Sur 18 Sudeste 1.4 -- -- 93
2020-05-14 11:00:00 11.2 4 Sur 15 Sur 0.2 -- -- 94
2020-05-14 10:00:00 10.8 4 Sur 15 Sur 0 -- -- 90
2020-05-14 09:00:00 10.1 0 Calma 11 Sur 0 -- -- 90
2020-05-14 08:00:00 9.5 4 Sur 13 Sur 0 -- -- 92
2020-05-14 07:00:00 9.3 6 Sudoeste 10 Sudoeste 0 -- -- 94
2020-05-14 06:00:00 9.1 4 Sudoeste 10 Oeste 0 -- -- 94
2020-05-14 05:00:00 9.2 6 Sudoeste 13 Sudoeste 0 -- -- 95
2020-05-14 04:00:00 9.6 4 Sudoeste 21 Sudoeste 0 -- -- 92
2020-05-14 03:00:00 9.9 11 Sudoeste 23 Sudoeste 0 -- -- 92
2020-05-14 02:00:00 10.1 8 Oeste 30 Oeste 0.4 -- -- 92
2020-05-14 01:00:00 11.1 14 Sudoeste 33 Sudoeste 0 -- -- 90
2020-05-14 00:00:00 12 11 Sur 17 Sur 0 -- -- 94
2020-05-13 23:00:00 11.9 5 Sudoeste 42 Sudoeste 0.4 -- -- 93
2020-05-13 22:00:00 14.1 10 Sur 33 Sur 0 -- -- 74
2020-05-13 21:00:00 16.5 6 Sur 19 Sur 0 -- -- 62
2020-05-13 20:00:00 17.5 4 Sur 23 Sudoeste 0 -- -- 55
2020-05-13 19:00:00 18.1 10 Sur 29 Sudoeste 0 -- -- 53
2020-05-13 18:00:00 19.5 18 Sur 31 Sudoeste 0 -- -- 50
2020-05-13 17:00:00 18.8 15 Sur 26 Sur 0 -- -- 50
2020-05-13 16:00:00 19.6 17 Sudoeste 27 Sur 0 -- -- 50
2020-05-13 15:00:00 16.3 13 Sudoeste 20 Sur 0 -- -- 64
2020-05-13 14:00:00 15.7 10 Sur 30 Sur 0 -- -- 69
2020-05-13 13:00:00 16 12 Sur 26 Sudoeste 0 -- -- 70
2020-05-13 12:00:00 14.8 13 Sudoeste 23 Sudoeste 0 -- -- 74
2020-05-13 11:00:00 12.7 6 Sur 16 Sudoeste 0 -- -- 89
2020-05-13 10:00:00 11.9 5 Sur 16 Sur 0 -- -- 93
2020-05-13 09:00:00 10.9 6 Sur 18 Sudoeste 0 -- -- 92
2020-05-13 08:00:00 10.7 7 Sur 18 Oeste 0 -- -- 93
2020-05-13 07:00:00 10.8 14 Sudoeste 20 Sudoeste 0 -- -- 95
2020-05-13 06:00:00 10.9 9 Sudoeste 17 Sudoeste 0 -- -- 95
2020-05-13 05:00:00 11.1 8 Sudoeste 17 Sur 0 -- -- 96
2020-05-13 04:00:00 11.1 8 Sur 21 Sudoeste 0 -- -- 96
2020-05-13 03:00:00 11.2 10 Sur 16 Sur 0 -- -- 96
2020-05-13 02:00:00 11.1 13 Sur 20 Sur 0 -- -- 96
2020-05-13 01:00:00 11 9 Sur 17 Sudoeste 0 -- -- 97
2020-05-13 00:00:00 10.9 11 Sur 18 Sur 0 -- -- 97
2020-05-12 23:00:00 10.8 5 Sudoeste 18 Sur 0 -- -- 96
2020-05-12 22:00:00 11.5 5 Sudoeste 13 Sudoeste 0 -- -- 94
2020-05-12 21:00:00 12.1 4 Sudoeste 9 Sur 0 -- -- 89
2020-05-12 20:00:00 13.1 2 Oeste 8 Sudoeste 0 -- -- 85
2020-05-12 19:00:00 13.9 2 Oeste 10 Sur 0 -- -- 79
2020-05-12 18:00:00 12.5 4 Sur 7 Sur 0.2 -- -- 90
2020-05-12 17:00:00 12 5 Sur 14 Sudoeste 0.8 -- -- 96
2020-05-12 16:00:00 11.9 7 Sur 15 Sur 0.2 -- -- 93
2020-05-12 15:00:00 11.7 6 Sur 18 Sur 0.4 -- -- 95
2020-05-12 14:00:00 11.8 13 Sur 26 Sur 0.2 -- -- 93
2020-05-12 13:00:00 11.9 16 Sur 32 Sur 0.2 -- -- 91
2020-05-12 12:00:00 12.9 17 Sur 31 Sudoeste 0 -- -- 85
2020-05-12 11:00:00 13.4 18 Sur 31 Sudoeste 0 -- -- 79
2020-05-12 10:00:00 13.4 4 Sudeste 20 Sudeste 0 -- -- 82
2020-05-12 09:00:00 12.6 5 Sudeste 21 Sur 0 -- -- 85
2020-05-12 08:00:00 11.9 2 Este 10 Sur 0 -- -- 89
2020-05-12 07:00:00 12.4 0 Calma 9 Este 0 -- -- 87
2020-05-12 06:00:00 12.7 3 Sur 10 Sur 0 -- -- 87
2020-05-12 05:00:00 12.9 7 Sur 18 Sur 0 -- -- 85
2020-05-12 04:00:00 13.3 4 Sur 19 Sur 0 -- -- 84
2020-05-12 03:00:00 13.4 9 Sudoeste 14 Sudoeste 0 -- -- 84
2020-05-12 02:00:00 13.6 9 Sudoeste 16 Sudoeste 0 -- -- 83
2020-05-12 01:00:00 14.4 4 Sur 22 Sur 0 -- -- 79
2020-05-12 00:00:00 15 12 Sudoeste 20 Sudoeste 0 -- -- 77
2020-05-11 23:00:00 15.2 8 Sudoeste 26 Sudoeste 0 -- -- 75
2020-05-11 22:00:00 16.2 18 Sudoeste 31 Sudoeste 0 -- -- 69
2020-05-11 21:00:00 16.8 14 Sudoeste 39 Sudoeste 0 -- -- 69
2020-05-11 20:00:00 17.7 22 Sudoeste 48 Sur 0 -- -- 65
2020-05-11 19:00:00 18.3 24 Sudoeste 44 Sudoeste 0 -- -- 63
2020-05-11 18:00:00 19 17 Sudoeste 44 Sur 0 -- -- 61
2020-05-11 17:00:00 19 20 Sudoeste 45 Sur 0.2 -- -- 62
2020-05-11 16:00:00 18.5 10 Sudoeste 31 Sur 0 -- -- 62
2020-05-11 15:00:00 18.4 14 Sudoeste 29 Oeste 0 -- -- 69
2020-05-11 14:00:00 16.5 9 Sudoeste 24 Sur 0 -- -- 79
2020-05-11 13:00:00 17.1 8 Sudoeste 21 Sudoeste 0 -- -- 82
2020-05-11 12:00:00 14.9 6 Sudoeste 21 Oeste 1.2 -- -- 98
2020-05-11 11:00:00 12.7 6 Sudoeste 25 Sur 2.4 -- -- 98
2020-05-11 10:00:00 12.2 12 Sur 24 Sur 1 -- -- 95
2020-05-11 09:00:00 11.8 7 Sur 25 Sur 0.6 -- -- 95
2020-05-11 08:00:00 12.1 16 Sur 29 Sur 0 -- -- 89
2020-05-11 07:00:00 12 15 Sur 26 Sur 0 -- -- 88
2020-05-11 06:00:00 11.6 6 Sur 23 Sur 0 -- -- 90
2020-05-11 05:00:00 11.9 4 Sudoeste 26 Sudoeste 0 -- -- 86
2020-05-11 04:00:00 12 12 Sudoeste 23 Sudoeste 0 -- -- 88
2020-05-11 03:00:00 12.3 6 Sudoeste 17 Sudoeste 0 -- -- 90
2020-05-11 02:00:00 12.6 5 Sudoeste 14 Sur 0 -- -- 92
2020-05-11 01:00:00 12.8 6 Sudoeste 14 Sudoeste 0 -- -- 91
2020-05-11 00:00:00 13.2 10 Oeste 22 Oeste 0 -- -- 84
2020-05-10 23:00:00 12.7 8 Oeste 20 Oeste 0 -- -- 91
2020-05-10 22:00:00 13.5 14 Oeste 40 Sudoeste 0.4 -- -- 86
2020-05-10 21:00:00 16.3 4 Oeste 20 Oeste 0 -- -- 60
2020-05-10 20:00:00 17.2 12 Oeste 28 Noroeste 0 -- -- 52
2020-05-10 19:00:00 17.3 9 Oeste 33 Oeste 0 -- -- 56
2020-05-10 18:00:00 19.1 10 Sudoeste 30 Oeste 0 -- -- 55
2020-05-10 17:00:00 15.6 9 Sudoeste 33 Oeste 0 -- -- 67
2020-05-10 16:00:00 17.9 7 Noroeste 25 Noroeste 0 -- -- 58
2020-05-10 15:00:00 14.8 7 Noroeste 26 Noroeste 0 -- -- 71
2020-05-10 14:00:00 14.6 8 Oeste 23 Oeste 0 -- -- 74
2020-05-10 13:00:00 13.3 9 Oeste 35 Oeste 0.8 -- -- 84
2020-05-10 12:00:00 11.1 11 Oeste 40 Sudoeste 2.4 -- -- 91
2020-05-10 11:00:00 12.4 14 Sudoeste 30 Sur 0 -- -- 88
2020-05-10 10:00:00 12 13 Sudoeste 17 Sudoeste 0 -- -- 95
2020-05-10 09:00:00 11 8 Sur 14 Sudoeste 0 -- -- 95
2020-05-10 08:00:00 10.7 6 Sudoeste 12 Sudoeste 0 -- -- 95
2020-05-10 07:00:00 11 2 Oeste 9 Oeste 0 -- -- 93
2020-05-10 06:00:00 11 0 Calma 10 Oeste 0 -- -- 93
2020-05-10 05:00:00 11.4 4 Oeste 17 Sudoeste 0 -- -- 91
2020-05-10 04:00:00 11.9 7 Oeste 14 Oeste 0 -- -- 92
2020-05-10 03:00:00 12 8 Oeste 19 Sudoeste 0 -- -- 95
2020-05-10 02:00:00 12 9 Sudoeste 16 Sudoeste 0 -- -- 97
2020-05-10 01:00:00 12 8 Sudoeste 17 Sudoeste 0.4 -- -- 97
2020-05-10 00:00:00 12.3 9 Sudoeste 17 Sudoeste 0.2 -- -- 94
2020-05-09 23:00:00 12.5 7 Sudoeste 15 Sur 0 -- -- 93
2020-05-09 22:00:00 12.9 10 Sudoeste 19 Sudoeste 0.8 -- -- 91
2020-05-09 21:00:00 14.1 10 Sudoeste 34 Noroeste 0 -- -- 85
2020-05-09 20:00:00 17.1 18 Oeste 44 Oeste 0 -- -- 64
2020-05-09 19:00:00 20.8 17 Sur 35 Sudoeste 0 -- -- 47
2020-05-09 18:00:00 21.1 19 Sur 33 Sur 0 -- -- 45
2020-05-09 17:00:00 21.9 21 Sudoeste 40 Sudoeste 0 -- -- 44
2020-05-09 16:00:00 23.4 18 Sudoeste 36 Sudoeste 0 -- -- 43
2020-05-09 15:00:00 22.9 19 Sudoeste 49 Sudoeste 0 -- -- 43
2020-05-09 14:00:00 22.1 14 Sudoeste 30 Sur 0 -- -- 44
2020-05-09 13:00:00 20.3 19 Sur 35 Sur 0 -- -- 47
2020-05-09 12:00:00 18.1 17 Sur 31 Sudoeste 0 -- -- 55
2020-05-09 11:00:00 16.4 16 Sudoeste 31 Sudoeste 0 -- -- 63
2020-05-09 10:00:00 14.2 22 Sudoeste 31 Sudoeste 0 -- -- 73
2020-05-09 09:00:00 13.7 12 Sur 21 Sur 0 -- -- 83
2020-05-09 08:00:00 12.3 11 Sudoeste 19 Sudoeste 0 -- -- 89
2020-05-09 07:00:00 12.2 11 Sudoeste 21 Sur 0 -- -- 91
2020-05-09 06:00:00 12.9 9 Sudoeste 23 Sur 0 -- -- 87
2020-05-09 05:00:00 14 12 Sur 24 Sudoeste 0 -- -- 81
2020-05-09 04:00:00 14.8 20 Sur 40 Sudoeste 0 -- -- 73
2020-05-09 03:00:00 15.8 14 Sudoeste 42 Sudoeste 0 -- -- 66
2020-05-09 02:00:00 16.9 13 Sudoeste 26 Sur 0 -- -- 63
2020-05-09 01:00:00 17.7 10 Sudoeste 33 Sur 0 -- -- 64
2020-05-09 00:00:00 18.8 13 Sudoeste 34 Sur 0 -- -- 65
2020-05-08 23:00:00 20.1 6 Sur 25 Sur 0 -- -- 58
2020-05-08 22:00:00 21.9 11 Sudoeste 31 Sur 0 -- -- 49
2020-05-08 21:00:00 23.8 9 Sudoeste 26 Sudoeste 0 -- -- 41
2020-05-08 20:00:00 25.4 15 Sudoeste 30 Sudoeste 0 -- -- 37
2020-05-08 19:00:00 28 16 Sudoeste 37 Sur 0 -- -- 31
2020-05-08 18:00:00 28.8 13 Sudoeste 33 Sur 0 -- -- 31
2020-05-08 17:00:00 30.2 13 Sudoeste 26 Sudoeste 0 -- -- 33
2020-05-08 16:00:00 29.4 9 Sudoeste 25 Sudoeste 0 -- -- 36
2020-05-08 15:00:00 28.9 10 Sudoeste 22 Sur 0 -- -- 35
2020-05-08 14:00:00 27.8 5 Sudoeste 22 Sudoeste 0 -- -- 38
2020-05-08 13:00:00 26.7 5 Sudoeste 17 Sur 0 -- -- 40
2020-05-08 12:00:00 24.7 5 Sur 13 Sur 0 -- -- 47
2020-05-08 11:00:00 22.4 4 Sudoeste 8 Sudoeste 0 -- -- 47
2020-05-08 10:00:00 19.2 3 Sudoeste 6 Sudoeste 0 -- -- 58
2020-05-08 09:00:00 17.8 0 Calma 3 Nordeste 0 -- -- 60
2020-05-08 08:00:00 15.3 0 Calma 4 Nordeste 0 -- -- 65
2020-05-08 07:00:00 16.4 0 Calma 9 Sur 0 -- -- 59
2020-05-08 06:00:00 17.2 4 Sudoeste 11 Sudoeste 0 -- -- 55
2020-05-08 05:00:00 17.3 7 Sudoeste 21 Sudoeste 0 -- -- 55
2020-05-08 04:00:00 18 9 Sudoeste 24 Sudoeste 0 -- -- 54
2020-05-08 03:00:00 18.1 11 Sudoeste 16 Sudoeste 0 -- -- 57
2020-05-08 02:00:00 18.9 9 Sudoeste 24 Sur 0 -- -- 57
2020-05-08 01:00:00 19.7 6 Sur 13 Sudoeste 0 -- -- 55
2020-05-08 00:00:00 21.4 12 Sudoeste 22 Sudoeste 0 -- -- 48
2020-05-07 23:00:00 21.9 10 Sudoeste 21 Sudoeste 0 -- -- 49
2020-05-07 22:00:00 23.2 8 Sudoeste 16 Sudoeste 0 -- -- 47
2020-05-07 21:00:00 25 5 Sudoeste 14 Sur 0 -- -- 48
2020-05-07 20:00:00 26.7 5 Sudoeste 13 Sudoeste 0 -- -- 46
2020-05-07 19:00:00 28.1 7 Sudoeste 16 Sur 0 -- -- 43
2020-05-07 18:00:00 29.1 6 Sur 13 Sur 0 -- -- 42
2020-05-07 17:00:00 26 2 Norte 8 Norte 0 -- -- 48
2020-05-07 16:00:00 26.4 2 Noroeste 11 Oeste 0 -- -- 46
2020-05-07 15:00:00 27.2 3 Noroeste 10 Norte 0 -- -- 47
2020-05-07 14:00:00 25.5 8 Este 18 Este 0 -- -- 51
2020-05-07 13:00:00 24 5 Nordeste 18 Este 0 -- -- 56
2020-05-07 12:00:00 23.1 6 Este 14 Este 0 -- -- 56
2020-05-07 11:00:00 20.2 4 Este 12 Este 0 -- -- 58
2020-05-07 10:00:00 18.3 3 Nordeste 10 Este 0 -- -- 61
2020-05-07 09:00:00 16.2 2 Nordeste 10 Este 0 -- -- 64
2020-05-07 08:00:00 16 0 Calma 5 Nordeste 0 -- -- 61
2020-05-07 07:00:00 16.4 0 Calma 7 Nordeste 0 -- -- 57
2020-05-07 06:00:00 17.1 0 Calma 16 Este 0 -- -- 53
2020-05-07 05:00:00 17.5 6 Este 11 Este 0 -- -- 50
2020-05-07 04:00:00 17.2 4 Este 12 Este 0 -- -- 55
2020-05-07 03:00:00 17.1 3 Sudeste 12 Este 0 -- -- 60
2020-05-07 02:00:00 17.7 4 Este 8 Este 0 -- -- 55
2020-05-07 01:00:00 18.2 2 Norte 6 Nordeste 0 -- -- 58
2020-05-07 00:00:00 18.5 0 Calma 6 Norte 0 -- -- 56
2020-05-06 23:00:00 19.1 2 Norte 7 Norte 0 -- -- 52
2020-05-06 22:00:00 19.8 0 Calma 7 Oeste 0 -- -- 51
2020-05-06 21:00:00 21.9 3 Noroeste 10 Noroeste 0 -- -- 45
2020-05-06 20:00:00 24.4 5 Noroeste 13 Noroeste 0 -- -- 38
2020-05-06 19:00:00 27.3 3 Noroeste 14 Norte 0 -- -- 36
2020-05-06 18:00:00 26.7 5 Norte 11 Norte 0 -- -- 35
2020-05-06 17:00:00 25.7 5 Norte 16 Norte 0 -- -- 33
2020-05-06 16:00:00 26.8 4 Noroeste 17 Oeste 0 -- -- 33
2020-05-06 15:00:00 24.8 5 Norte 16 Oeste 0 -- -- 33
2020-05-06 14:00:00 24.6 3 Norte 13 Este 0 -- -- 39
2020-05-06 13:00:00 22.5 4 Norte 13 Norte 0 -- -- 45
2020-05-06 12:00:00 20.6 3 Noroeste 9 Norte 0 -- -- 51
2020-05-06 11:00:00 18.2 2 Noroeste 9 Norte 0 -- -- 59
2020-05-06 10:00:00 16.5 3 Sudoeste 5 Sudoeste 0 -- -- 69
2020-05-06 09:00:00 13.7 0 Calma 2 Noroeste 0 -- -- 74
2020-05-06 08:00:00 12.3 0 Calma 4 Norte 0 -- -- 73
2020-05-06 07:00:00 12.6 0 Calma 7 Nordeste 0 -- -- 71
2020-05-06 06:00:00 13.1 2 Norte 6 Norte 0 -- -- 68
2020-05-06 05:00:00 14 0 Calma 4 Norte 0 -- -- 63
2020-05-06 04:00:00 14 0 Calma 5 Sur 0 -- -- 61
2020-05-06 03:00:00 15.2 0 Calma 2 Sur 0 -- -- 57
2020-05-06 02:00:00 15.9 2 Norte 4 Norte 0 -- -- 54
2020-05-06 01:00:00 15.8 0 Calma 8 Norte 0 -- -- 55
2020-05-06 00:00:00 16.9 0 Calma 8 Norte 0 -- -- 50
2020-05-05 23:00:00 17.7 2 Norte 7 Norte 0 -- -- 50
2020-05-05 22:00:00 18.7 3 Noroeste 12 Norte 0 -- -- 44
2020-05-05 21:00:00 21 3 Noroeste 13 Noroeste 0 -- -- 42
2020-05-05 20:00:00 23.1 3 Noroeste 16 Oeste 0 -- -- 42
2020-05-05 19:00:00 25.6 4 Norte 14 Norte 0 -- -- 39
2020-05-05 18:00:00 26.8 4 Noroeste 14 Nordeste 0 -- -- 36
2020-05-05 17:00:00 26.1 5 Oeste 18 Sudoeste 0 -- -- 37
2020-05-05 16:00:00 26.3 8 Sudoeste 20 Sudoeste 0 -- -- 41
2020-05-05 15:00:00 25 8 Sudoeste 13 Sudoeste 0 -- -- 44
2020-05-05 14:00:00 21.9 4 Noroeste 14 Nordeste 0 -- -- 54
2020-05-05 13:00:00 20.9 3 Norte 10 Norte 0 -- -- 55
2020-05-05 12:00:00 19.5 4 Norte 9 Norte 0 -- -- 62
2020-05-05 11:00:00 18.6 5 Nordeste 9 Nordeste 0 -- -- 64
2020-05-05 10:00:00 16.8 2 Sudoeste 5 Sudoeste 0 -- -- 74
2020-05-05 09:00:00 14.6 2 Norte 4 Oeste 0 -- -- 81
2020-05-05 08:00:00 13.3 0 Calma 6 Norte 0 -- -- 85
2020-05-05 07:00:00 13.2 2 Norte 7 Norte 0 -- -- 85
2020-05-05 06:00:00 13.9 2 Norte 8 Norte 0 -- -- 82
2020-05-05 05:00:00 14.7 0 Calma 10 Oeste 0 -- -- 77
2020-05-05 04:00:00 15.7 3 Noroeste 13 Noroeste 0 -- -- 73
2020-05-05 03:00:00 15.8 3 Noroeste 10 Noroeste 0 -- -- 75
2020-05-05 02:00:00 16.8 3 Noroeste 13 Noroeste 0 -- -- 73
2020-05-05 01:00:00 18.1 2 Noroeste 12 Noroeste 0 -- -- 72
2020-05-05 00:00:00 19.3 2 Noroeste 11 Oeste 0 -- -- 69